Time;durP1;ratioP1;P1;durP2;ratioP2;P2;SDS_P1;SDS_P2;PMS_P1;PMS_P2;Temp;Humidity;BMP_temperature;BMP_pressure;BME280_temperature;BME280_humidity;BME280_pressure;Samples;Min_cycle;Max_cycle;Signal;HPM_P1;HPM_P2
2022/12/01 00:02:02;;;;;;;22.43;13.30;;;;;;;2.95;nan;99282.03;5009877;28;20522;-60
2022/12/01 00:04:28;;;;;;;17.20;10.60;;;;;;;2.79;nan;99274.94;5010101;28;20054;-61
2022/12/01 00:06:54;;;;;;;16.63;10.80;;;;;;;2.72;nan;99289.97;5010541;28;20056;-59
2022/12/01 00:12:04;;;;;;;19.10;11.87;;;;;;;2.44;nan;99290.16;5009672;28;20133;-62
2022/12/01 00:14:29;;;;;;;18.87;11.30;;;;;;;2.28;nan;99273.78;5008741;28;20042;-61
2022/12/01 00:16:55;;;;;;;17.37;11.20;;;;;;;2.32;nan;99294.94;5012334;28;20543;-61
2022/12/01 00:19:25;;;;;;;19.53;11.67;;;;;;;2.19;nan;99281.13;5007277;28;20038;-61
2022/12/01 00:21:50;;;;;;;15.23;9.53;;;;;;;2.09;nan;99275.81;5006074;28;20084;-61
2022/12/01 00:24:16;;;;;;;16.83;10.07;;;;;;;2.13;nan;99292.75;5012331;28;20109;-61
2022/12/01 00:26:42;;;;;;;20.17;11.40;;;;;;;2.00;nan;99266.31;5012088;28;20054;-60
2022/12/01 00:29:08;;;;;;;21.47;12.40;;;;;;;1.99;nan;99281.47;5014534;28;20037;-61
2022/12/01 00:31:33;;;;;;;20.10;11.17;;;;;;;2.05;nan;99297.63;5012529;28;20046;-60
2022/12/01 00:33:59;;;;;;;22.20;11.70;;;;;;;1.94;nan;99278.81;5012387;28;20034;-59
2022/12/01 00:36:25;;;;;;;26.30;13.60;;;;;;;2.01;nan;99284.88;5028518;28;20045;-60
2022/12/01 00:38:54;;;;;;;27.20;15.53;;;;;;;1.99;nan;99281.47;5008586;28;20501;-60
2022/12/01 00:41:22;;;;;;;26.37;15.43;;;;;;;1.98;nan;99279.75;5011719;28;20087;-60
2022/12/01 00:43:48;;;;;;;30.87;15.53;;;;;;;2.08;nan;99289.28;5029202;28;20141;-60
2022/12/01 00:46:14;;;;;;;39.47;19.30;;;;;;;2.09;nan;99290.97;5013960;28;20046;-60
2022/12/01 00:48:40;;;;;;;37.87;19.07;;;;;;;2.08;nan;99287.59;5013762;28;20076;-59
2022/12/01 00:51:06;;;;;;;50.90;23.83;;;;;;;2.06;nan;99291.75;5013265;28;20120;-60
2022/12/01 00:53:31;;;;;;;54.43;25.07;;;;;;;2.09;nan;99296.91;5007276;28;20057;-60
2022/12/01 00:55:57;;;;;;;44.63;22.07;;;;;;;2.10;nan;99290.16;5013866;28;20042;-60
2022/12/01 00:58:23;;;;;;;53.67;25.07;;;;;;;1.99;nan;99269.69;5012989;28;20061;-60
2022/12/01 01:00:57;;;;;;;46.57;23.30;;;;;;;2.18;nan;99289.53;5012005;28;20381;-61
2022/12/01 01:03:25;;;;;;;54.35;25.98;;;;;;;2.07;nan;99274.94;5012932;28;20101;-60
2022/12/01 01:05:51;;;;;;;54.67;26.20;;;;;;;2.22;nan;99295.53;5013633;28;20179;-61
2022/12/01 01:08:16;;;;;;;50.33;26.00;;;;;;;2.20;nan;99290.44;5013928;28;20599;-59
2022/12/01 01:10:45;;;;;;;55.60;25.70;;;;;;;2.22;nan;99295.53;4993629;28;20041;-59
2022/12/01 01:13:12;;;;;;;54.20;26.40;;;;;;;2.15;nan;99286.09;5008234;28;20053;-59
2022/12/01 01:15:37;;;;;;;52.23;25.00;;;;;;;1.98;nan;99267.09;5012963;28;20234;-61
2022/12/01 01:18:04;;;;;;;45.80;24.80;;;;;;;1.98;nan;99274.69;5007137;28;20077;-60
2022/12/01 01:20:30;;;;;;;53.27;25.03;;;;;;;1.98;nan;99280.59;5012859;28;20149;-60
2022/12/01 01:22:56;;;;;;;51.37;23.80;;;;;;;1.99;nan;99271.34;5012859;28;20114;-60
2022/12/01 01:25:22;;;;;;;52.50;24.23;;;;;;;1.99;nan;99274.75;5011744;28;20049;-60
2022/12/01 01:27:47;;;;;;;49.73;24.53;;;;;;;2.06;nan;99278.25;5014177;28;20042;-59
2022/12/01 01:30:13;;;;;;;52.07;23.67;;;;;;;2.03;nan;99278.19;5012537;28;20057;-62
2022/12/01 01:32:39;;;;;;;47.67;23.27;;;;;;;2.06;nan;99285.84;5011639;28;20096;-61
2022/12/01 01:35:05;;;;;;;41.40;20.27;;;;;;;2.03;nan;99283.25;5010372;28;20034;-59
2022/12/01 01:37:30;;;;;;;34.83;18.60;;;;;;;2.03;nan;99283.25;5012246;28;20044;-62
2022/12/01 01:39:56;;;;;;;33.53;17.50;;;;;;;1.92;nan;99279.56;5013347;28;20054;-60
2022/12/01 01:42:22;;;;;;;36.50;15.87;;;;;;;1.92;nan;99279.56;5007044;28;20204;-60
2022/12/01 01:44:56;;;;;;;33.83;17.57;;;;;;;1.92;nan;99279.56;5005570;28;20432;-59
2022/12/01 01:47:35;;;;;;;35.63;19.40;;;;;;;1.92;nan;99279.56;5013715;28;20049;-62
2022/12/01 01:50:13;;;;;;;49.43;21.27;;;;;;;1.92;nan;99279.56;5010915;28;20504;-61
2022/12/01 01:52:47;;;;;;;47.07;23.07;;;;;;;1.93;nan;99273.72;5009832;28;20056;-61
2022/12/01 01:55:14;;;;;;;57.77;26.80;;;;;;;1.93;nan;99273.72;5008686;28;20049;-61
2022/12/01 01:57:41;;;;;;;57.80;26.43;;;;;;;1.93;nan;99273.72;5026870;28;20207;-61
2022/12/01 02:00:10;;;;;;;58.20;25.60;;;;;;;1.93;nan;99273.72;5010901;28;20493;-62
2022/12/01 02:02:43;;;;;;;58.50;26.57;;;;;;;1.93;nan;99273.72;5008330;28;20053;-60
2022/12/01 02:05:22;;;;;;;57.93;27.90;;;;;;;1.93;nan;99273.72;5006077;28;20046;-60
2022/12/01 02:07:49;;;;;;;59.33;29.83;;;;;;;1.93;nan;99273.72;5009472;28;20052;-62
2022/12/01 02:10:21;;;;;;;56.37;28.00;;;;;;;1.93;nan;99273.72;5011757;28;20050;-60
2022/12/01 02:12:56;;;;;;;67.23;29.20;;;;;;;2.12;nan;99286.84;5008978;28;20034;-60
2022/12/01 02:15:45;;;;;;;62.08;29.15;;;;;;;2.16;nan;99297.91;5011323;28;20092;-61
2022/12/01 02:18:20;;;;;;;57.33;25.70;;;;;;;2.15;nan;99291.13;5011918;28;20046;-60
2022/12/01 02:21:08;;;;;;;59.67;27.67;;;;;;;2.14;nan;99294.47;5008598;28;20042;-61
2022/12/01 02:24:10;;;;;;;57.70;27.57;;;;;;;2.14;nan;99294.47;5009616;28;20046;-61
2022/12/01 02:27:08;;;;;;;60.43;28.63;;;;;;;2.14;nan;99294.47;5010633;28;20141;-61
2022/12/01 02:29:46;;;;;;;57.00;27.57;;;;;;;2.14;nan;99294.47;5012327;28;20042;-63
2022/12/01 02:32:42;;;;;;;63.37;29.37;;;;;;;2.10;nan;99285.09;5012046;28;20068;-61
2022/12/01 02:35:15;;;;;;;62.38;27.23;;;;;;;2.10;nan;99285.09;5011849;28;20060;-60
2022/12/01 02:37:50;;;;;;;65.57;30.20;;;;;;;2.10;nan;99285.09;5011857;28;20083;-60
2022/12/01 02:40:25;;;;;;;66.13;31.60;;;;;;;2.10;nan;99285.09;5022352;28;20700;-61
2022/12/01 02:43:09;;;;;;;67.15;29.05;;;;;;;2.10;nan;99272.47;5010321;28;20103;-62
2022/12/01 02:45:53;;;;;;;60.07;28.63;;;;;;;2.10;nan;99272.47;5007712;28;20107;-60
2022/12/01 02:48:32;;;;;;;63.43;29.57;;;;;;;2.10;nan;99272.47;5004068;28;20445;-60
2022/12/01 02:51:21;;;;;;;62.00;28.80;;;;;;;2.10;nan;99272.47;5010619;28;20050;-60
2022/12/01 02:53:48;;;;;;;55.77;27.87;;;;;;;2.10;nan;99272.47;5010286;28;20500;-60
2022/12/01 02:56:17;;;;;;;64.60;27.53;;;;;;;2.10;nan;99272.47;5010737;28;20475;-61
2022/12/01 02:58:42;;;;;;;58.70;27.10;;;;;;;2.10;nan;99272.47;5009262;28;20119;-61
2022/12/01 03:01:20;;;;;;;61.20;30.37;;;;;;;2.10;nan;99272.47;5026223;28;20508;-61
2022/12/01 03:03:51;;;;;;;57.87;31.17;;;;;;;2.10;nan;99272.47;5009209;28;20977;-60
2022/12/01 03:06:43;;;;;;;63.30;29.23;;;;;;;2.10;nan;99272.47;5009761;28;20405;-61
2022/12/01 03:09:22;;;;;;;66.80;30.20;;;;;;;2.10;nan;99272.47;5007736;28;20737;-61
2022/12/01 03:11:53;;;;;;;61.80;30.23;;;;;;;2.10;nan;99272.47;5009469;28;20505;-61
2022/12/01 03:14:35;;;;;;;64.93;29.33;;;;;;;2.10;nan;99272.47;5007317;28;20128;-61
2022/12/01 03:17:06;;;;;;;61.90;29.07;;;;;;;2.10;nan;99272.47;5009682;28;20042;-61
2022/12/01 03:19:31;;;;;;;67.07;32.53;;;;;;;2.10;nan;99272.47;5009757;28;20120;-62
2022/12/01 03:22:03;;;;;;;61.63;29.37;;;;;;;2.10;nan;99272.47;5011082;28;20489;-61
2022/12/01 03:24:31;;;;;;;65.40;29.00;;;;;;;2.10;nan;99272.47;5009931;28;20489;-60
2022/12/01 03:27:00;;;;;;;61.40;30.27;;;;;;;2.10;nan;99272.47;5010892;28;20073;-61
2022/12/01 03:29:35;;;;;;;61.17;27.40;;;;;;;2.10;nan;99272.47;5011475;28;20073;-60
2022/12/01 03:32:19;;;;;;;63.73;31.57;;;;;;;2.10;nan;99272.47;5009231;28;20402;-61
2022/12/01 03:34:57;;;;;;;62.60;28.33;;;;;;;2.10;nan;99272.47;5009740;28;20051;-60
2022/12/01 03:37:38;;;;;;;65.27;30.57;;;;;;;2.10;nan;99272.47;5010788;28;20042;-60
2022/12/01 03:40:09;;;;;;;67.07;29.37;;;;;;;2.10;nan;99272.47;5010393;28;20049;-61
2022/12/01 03:42:40;;;;;;;67.00;32.13;;;;;;;1.86;nan;99271.84;5010853;28;20121;-61
2022/12/01 03:45:10;;;;;;;63.23;30.03;;;;;;;1.83;nan;99275.13;5009690;28;20556;-60
2022/12/01 03:47:39;;;;;;;67.07;30.17;;;;;;;1.72;nan;99262.25;5011195;28;20424;-60
2022/12/01 03:50:08;;;;;;;62.80;28.83;;;;;;;1.72;nan;99262.25;5010016;28;20041;-61
2022/12/01 03:52:55;;;;;;;65.07;30.67;;;;;;;1.83;nan;99288.63;5010097;28;20049;-61
2022/12/01 03:55:25;;;;;;;62.03;27.90;;;;;;;1.79;nan;99291.91;5011109;28;20042;-60
2022/12/01 03:58:09;;;;;;;64.17;30.03;;;;;;;1.75;nan;99291.78;5021654;28;20398;-61
2022/12/01 04:00:36;;;;;;;58.60;27.93;;;;;;;1.62;nan;99265.34;5019209;28;20412;-60
2022/12/01 04:03:05;;;;;;;60.77;30.20;;;;;;;1.62;nan;99265.34;5012106;28;20441;-60
2022/12/01 04:05:33;;;;;;;59.17;28.37;;;;;;;1.62;nan;99265.34;5009994;28;20038;-60
2022/12/01 04:07:59;;;;;;;63.93;30.47;;;;;;;1.62;nan;99265.34;5012681;28;20160;-60
2022/12/01 04:10:24;;;;;;;67.03;33.03;;;;;;;1.62;nan;99265.34;5010137;28;20424;-60
2022/12/01 04:12:57;;;;;;;59.33;28.13;;;;;;;2.50;nan;99280.22;5011399;28;20049;-60
2022/12/01 04:15:23;;;;;;;57.20;29.53;;;;;;;2.50;nan;99280.22;5021719;28;20042;-60
2022/12/01 04:17:49;;;;;;;56.67;28.17;;;;;;;2.50;nan;99280.22;5003551;28;20277;-61
2022/12/01 04:20:16;;;;;;;53.23;27.23;;;;;;;2.50;nan;99280.22;5008127;28;20136;-60
2022/12/01 04:22:41;;;;;;;66.50;28.97;;;;;;;2.50;nan;99280.22;5009717;28;20080;-60
2022/12/01 04:25:07;;;;;;;67.43;33.13;;;;;;;2.50;nan;99280.22;5006126;28;20092;-61
2022/12/01 04:27:33;;;;;;;61.17;30.80;;;;;;;2.50;nan;99280.22;5010629;28;20042;-60
2022/12/01 04:29:59;;;;;;;71.33;31.87;;;;;;;2.50;nan;99280.22;5009973;28;20042;-61
2022/12/01 04:32:25;;;;;;;85.77;36.87;;;;;;;2.50;nan;99280.22;5003581;28;20053;-60
2022/12/01 04:34:51;;;;;;;97.10;45.03;;;;;;;1.95;nan;99272.09;5010874;28;20074;-61
2022/12/01 04:37:17;;;;;;;104.40;46.17;;;;;;;1.86;nan;99264.28;5010369;28;20052;-60
2022/12/01 04:39:43;;;;;;;71.40;32.47;;;;;;;2.24;nan;99258.50;5004924;28;20314;-61
2022/12/01 04:42:09;;;;;;;67.27;30.40;;;;;;;2.62;nan;99277.09;5009756;28;20030;-61
2022/12/01 04:44:35;;;;;;;60.77;29.17;;;;;;;2.57;nan;99250.81;5003384;28;20042;-60
2022/12/01 04:47:01;;;;;;;67.17;29.77;;;;;;;2.81;nan;99280.88;5006300;28;20041;-59
2022/12/01 04:49:27;;;;;;;60.47;28.60;;;;;;;2.81;nan;99280.88;5008808;28;20034;-60
2022/12/01 04:51:53;;;;;;;64.77;30.67;;;;;;;2.47;nan;99280.09;5013065;28;20037;-60
2022/12/01 04:54:19;;;;;;;64.53;30.53;;;;;;;2.47;nan;99280.09;5010150;28;20378;-61
2022/12/01 04:56:44;;;;;;;69.17;33.93;;;;;;;2.33;nan;99278.94;5010231;28;20093;-61
2022/12/01 04:59:10;;;;;;;75.67;34.43;;;;;;;2.30;nan;99286.44;5010760;28;20138;-62
2022/12/01 05:01:36;;;;;;;82.27;38.83;;;;;;;2.42;nan;99286.72;5007441;28;20034;-60
2022/12/01 05:04:02;;;;;;;70.50;33.17;;;;;;;2.23;nan;99287.13;5009849;28;20519;-59
2022/12/01 05:06:28;;;;;;;66.60;30.73;;;;;;;2.06;nan;99273.22;5009256;28;20045;-60
2022/12/01 05:08:57;;;;;;;61.47;29.70;;;;;;;2.08;nan;99285.06;5014525;28;20428;-59
2022/12/01 05:11:24;;;;;;;61.57;29.17;;;;;;;2.01;nan;99284.88;5014569;28;20022;-59
2022/12/01 05:13:50;;;;;;;63.57;28.33;;;;;;;1.91;nan;99278.72;5015527;28;20049;-59
2022/12/01 05:16:21;;;;;;;60.23;28.67;;;;;;;1.91;nan;99278.72;5016800;28;20045;-59
2022/12/01 05:20:55;;;;;;;60.60;28.73;;;;;;;1.91;nan;99298.13;5012068;28;20504;-59
2022/12/01 05:21:42;;;;;;;59.70;27.53;;;;;;;1.79;nan;99283.47;5015121;28;20426;-59
2022/12/01 05:24:10;;;;;;;63.23;30.60;;;;;;;1.81;nan;99300.41;5012034;28;20034;-61
2022/12/01 05:26:36;;;;;;;63.10;29.30;;;;;;;1.76;nan;99293.50;5008936;28;20033;-60
2022/12/01 05:29:02;;;;;;;63.67;30.37;;;;;;;1.74;nan;99293.44;5014484;28;20045;-60
2022/12/01 05:31:28;;;;;;;68.47;32.20;;;;;;;1.67;nan;99284.00;5013617;28;20042;-60
2022/12/01 05:33:53;;;;;;;67.63;29.83;;;;;;;1.70;nan;99294.19;5013007;28;20520;-61
2022/12/01 05:36:19;;;;;;;66.30;31.50;;;;;;;1.76;nan;99314.59;5012071;28;20491;-62
2022/12/01 05:38:44;;;;;;;62.57;29.87;;;;;;;1.75;nan;99307.81;5011782;28;20053;-61
2022/12/01 05:41:10;;;;;;;65.70;31.53;;;;;;;1.80;nan;99308.78;5009665;28;20037;-61
2022/12/01 05:43:35;;;;;;;71.37;32.30;;;;;;;1.78;nan;99312.94;5012022;28;20045;-60
2022/12/01 05:46:02;;;;;;;57.00;29.57;;;;;;;1.76;nan;99314.59;5011671;28;20068;-60
2022/12/01 05:48:28;;;;;;;73.80;31.77;;;;;;;1.80;nan;99311.31;5012888;28;20420;-61
2022/12/01 05:50:53;;;;;;;67.33;30.67;;;;;;;1.78;nan;99317.16;5014309;28;20030;-61
2022/12/01 05:53:19;;;;;;;70.33;32.50;;;;;;;1.71;nan;99316.13;5011985;28;20063;-60
2022/12/01 05:55:44;;;;;;;66.97;31.60;;;;;;;1.63;nan;99299.91;5012671;28;20152;-60
2022/12/01 05:58:12;;;;;;;61.20;30.70;;;;;;;1.73;nan;99314.50;5010318;28;20621;-61
2022/12/01 06:00:38;;;;;;;64.97;30.57;;;;;;;1.74;nan;99311.13;5011526;28;20037;-60
2022/12/01 06:03:04;;;;;;;61.63;29.37;;;;;;;1.69;nan;99302.59;5012552;28;20068;-60
2022/12/01 06:05:30;;;;;;;69.13;32.90;;;;;;;1.60;nan;99286.34;5011461;28;20057;-64
2022/12/01 06:07:55;;;;;;;64.00;31.57;;;;;;;1.72;nan;99306.88;5011860;28;20084;-59
2022/12/01 06:10:21;;;;;;;62.33;29.33;;;;;;;1.77;nan;99310.38;5008672;28;20042;-61
2022/12/01 06:12:47;;;;;;;76.00;33.20;;;;;;;1.75;nan;99312.88;5006776;28;20034;-62
2022/12/01 06:15:14;;;;;;;63.23;29.70;;;;;;;1.79;nan;99317.19;5005824;28;20350;-60
2022/12/01 06:17:40;;;;;;;63.53;30.17;;;;;;;1.80;nan;99318.91;5022520;28;20144;-61
2022/12/01 06:20:07;;;;;;;61.90;29.33;;;;;;;1.81;nan;99313.03;5003325;28;20649;-60
2022/12/01 06:22:32;;;;;;;61.13;30.33;;;;;;;1.78;nan;99312.09;5021293;28;20180;-60
2022/12/01 06:24:58;;;;;;;79.27;36.73;;;;;;;1.73;nan;99296.81;5011850;28;20487;-60
2022/12/01 06:27:24;;;;;;;77.70;37.53;;;;;;;1.78;nan;99310.41;5012852;28;20029;-61
2022/12/01 06:29:49;;;;;;;71.17;34.07;;;;;;;1.80;nan;99313.84;5026145;28;20041;-60
2022/12/01 06:32:16;;;;;;;70.17;36.10;;;;;;;1.81;nan;99310.50;5010434;28;20149;-60
2022/12/01 06:34:42;;;;;;;72.90;34.70;;;;;;;1.81;nan;99310.50;5011507;28;20037;-59
2022/12/01 06:37:09;;;;;;;62.40;32.37;;;;;;;1.88;nan;99313.19;5013076;28;20610;-60
2022/12/01 06:39:35;;;;;;;62.07;29.50;;;;;;;1.82;nan;99316.44;5010664;28;20096;-62
2022/12/01 06:42:00;;;;;;;75.83;34.47;;;;;;;1.84;nan;99318.16;5009871;28;20502;-60
2022/12/01 06:44:26;;;;;;;65.80;32.00;;;;;;;1.86;nan;99312.31;5010335;28;20127;-63
2022/12/01 06:46:51;;;;;;;67.40;31.73;;;;;;;1.88;nan;99316.56;5003519;28;20112;-62
2022/12/01 06:49:18;;;;;;;62.13;29.57;;;;;;;1.93;nan;99321.75;5005006;28;20477;-63
2022/12/01 06:51:45;;;;;;;64.17;29.93;;;;;;;1.92;nan;99318.34;5005761;28;20030;-64
2022/12/01 06:54:11;;;;;;;61.90;30.47;;;;;;;1.92;nan;99315.84;5005117;28;20038;-61
2022/12/01 06:56:37;;;;;;;63.60;30.90;;;;;;;1.91;nan;99318.34;5011110;28;20041;-60
2022/12/01 06:59:03;;;;;;;63.93;30.43;;;;;;;1.83;nan;99306.34;5010261;28;20496;-61
2022/12/01 07:01:28;;;;;;;64.93;30.97;;;;;;;1.93;nan;99320.09;5009847;28;20461;-62
2022/12/01 07:03:54;;;;;;;63.07;30.17;;;;;;;1.94;nan;99323.47;5002776;28;20171;-61
2022/12/01 07:06:20;;;;;;;62.33;31.33;;;;;;;1.96;nan;99327.72;5003108;28;20034;-60
2022/12/01 07:08:45;;;;;;;61.53;30.07;;;;;;;1.85;nan;99301.34;5008285;28;20104;-62
2022/12/01 07:11:14;;;;;;;68.77;31.17;;;;;;;1.99;nan;99332.03;5010941;28;20068;-61
2022/12/01 07:13:43;;;;;;;61.03;29.37;;;;;;;2.00;nan;99338.78;5008421;28;20137;-61
2022/12/01 07:16:12;;;;;;;66.77;28.77;;;;;;;2.06;nan;99346.53;5007205;28;20652;-62
2022/12/01 07:18:39;;;;;;;63.63;30.33;;;;;;;2.10;nan;99346.66;5010734;28;20390;-62
2022/12/01 07:21:09;;;;;;;63.80;31.17;;;;;;;2.17;nan;99337.53;5010763;28;20065;-61
2022/12/01 07:23:35;;;;;;;63.20;30.87;;;;;;;2.05;nan;99335.56;5008963;28;20607;-62
2022/12/01 07:26:05;;;;;;;63.27;31.23;;;;;;;2.28;nan;99346.28;5009867;28;20041;-62
2022/12/01 07:28:32;;;;;;;62.47;30.87;;;;;;;2.22;nan;99331.78;5009570;28;20052;-61
2022/12/01 07:31:07;;;;;;;64.83;29.40;;;;;;;2.37;nan;99351.56;5010034;28;20373;-61
2022/12/01 07:33:33;;;;;;;59.10;31.05;;;;;;;2.39;nan;99346.53;5012064;28;20137;-62
2022/12/01 07:35:59;;;;;;;60.37;30.70;;;;;;;2.44;nan;99350.91;5009190;28;20041;-61
2022/12/01 07:38:28;;;;;;;58.40;29.33;;;;;;;2.54;nan;99362.97;5003166;28;20038;-61
2022/12/01 07:40:54;;;;;;;57.17;29.23;;;;;;;2.52;nan;99361.19;5011144;28;20728;-61
2022/12/01 07:43:19;;;;;;;62.70;28.90;;;;;;;2.60;nan;99359.72;5008943;28;20032;-60
2022/12/01 07:45:45;;;;;;;58.97;29.37;;;;;;;2.72;nan;99370.13;5008829;28;20088;-61
2022/12/01 07:48:11;;;;;;;56.10;27.60;;;;;;;2.78;nan;99366.88;5007664;28;20436;-62
2022/12/01 07:50:36;;;;;;;63.50;31.63;;;;;;;2.79;nan;99368.59;5007094;28;20660;-62
2022/12/01 07:53:02;;;;;;;57.97;29.97;;;;;;;2.76;nan;99366.84;5007817;28;20477;-62
2022/12/01 07:55:28;;;;;;;62.83;32.10;;;;;;;2.84;nan;99377.19;5008007;28;20499;-59
2022/12/01 07:57:53;;;;;;;64.00;32.60;;;;;;;2.85;nan;99377.19;5009595;28;20089;-63
2022/12/01 08:00:19;;;;;;;62.20;29.83;;;;;;;2.92;nan;99380.75;5012046;28;20050;-62
2022/12/01 08:02:47;;;;;;;60.63;32.10;;;;;;;3.02;nan;99370.84;5009816;28;20079;-63
2022/12/01 08:05:13;;;;;;;59.20;29.93;;;;;;;2.97;nan;99369.03;5012816;28;20038;-63
2022/12/01 08:07:38;;;;;;;65.33;31.73;;;;;;;3.09;nan;99382.84;5007911;28;20168;-61
2022/12/01 08:10:04;;;;;;;63.20;33.33;;;;;;;3.13;nan;99381.22;5009710;28;20042;-63
2022/12/01 08:12:30;;;;;;;64.13;31.67;;;;;;;3.18;nan;99389.78;5008667;28;20037;-61
2022/12/01 08:14:55;;;;;;;61.80;30.40;;;;;;;3.26;nan;99380.69;5009940;28;20054;-61
2022/12/01 08:17:21;;;;;;;57.03;27.53;;;;;;;3.21;nan;99388.19;5010832;28;20156;-61
2022/12/01 08:19:46;;;;;;;54.37;28.37;;;;;;;3.28;nan;99384.09;5008754;28;20045;-60
2022/12/01 08:22:12;;;;;;;64.23;30.73;;;;;;;3.32;nan;99377.41;5005657;28;20682;-60
2022/12/01 08:24:38;;;;;;;60.13;30.23;;;;;;;3.10;nan;99368.47;5005481;28;20072;-63
2022/12/01 08:27:03;;;;;;;56.33;28.67;;;;;;;3.09;nan;99366.78;5006384;28;20057;-62
2022/12/01 08:29:29;;;;;;;60.63;30.10;;;;;;;3.20;nan;99363.66;5004481;28;20046;-61
2022/12/01 08:31:57;;;;;;;64.63;28.50;;;;;;;3.22;nan;99369.59;5009828;28;20054;-63
2022/12/01 08:34:22;;;;;;;58.90;29.57;;;;;;;3.18;nan;99377.13;5009923;28;20053;-60
2022/12/01 08:36:48;;;;;;;59.70;29.80;;;;;;;3.15;nan;99357.63;5009753;28;20062;-61
2022/12/01 08:39:14;;;;;;;62.23;31.47;;;;;;;3.21;nan;99378.03;5010614;28;20092;-60
2022/12/01 08:41:41;;;;;;;56.50;29.30;;;;;;;3.23;nan;99373.84;5003576;28;20065;-62
2022/12/01 08:44:08;;;;;;;64.43;31.13;;;;;;;3.17;nan;99371.19;5013706;28;20089;-62
2022/12/01 08:46:35;;;;;;;63.27;32.73;;;;;;;3.08;nan;99372.66;5015230;28;20630;-61
2022/12/01 08:49:02;;;;;;;59.20;30.23;;;;;;;2.81;nan;99374.53;5014504;28;20061;-61
2022/12/01 08:51:28;;;;;;;62.90;29.30;;;;;;;2.80;nan;99375.41;5014719;28;20720;-65
2022/12/01 08:53:55;;;;;;;65.50;32.50;;;;;;;2.56;nan;99371.44;5013080;28;20058;-60
2022/12/01 08:56:29;;;;;;;65.67;32.03;;;;;;;2.65;nan;99365.75;5013649;28;20046;-60
2022/12/01 08:58:55;;;;;;;64.70;29.30;;;;;;;2.85;nan;99376.34;5013628;28;20486;-60
2022/12/01 09:01:21;;;;;;;68.50;31.80;;;;;;;3.15;nan;99384.63;5013424;28;20365;-61
2022/12/01 09:03:47;;;;;;;62.40;31.27;;;;;;;3.34;nan;99380.84;5012593;28;20061;-61
2022/12/01 09:06:16;;;;;;;68.83;31.27;;;;;;;3.37;nan;99389.38;5013849;28;20110;-61
2022/12/01 09:08:42;;;;;;;66.33;30.50;;;;;;;3.42;nan;99375.13;5006448;28;20088;-61
2022/12/01 09:11:16;;;;;;;61.57;31.07;;;;;;;3.52;nan;99359.25;5008385;28;20037;-62
2022/12/01 09:13:43;;;;;;;56.30;28.63;;;;;;;3.67;nan;99382.41;5012913;28;20411;-63
2022/12/01 09:16:14;;;;;;;66.23;30.33;;;;;;;3.88;nan;99373.50;5012558;28;20041;-62
2022/12/01 09:18:41;;;;;;;59.77;29.37;;;;;;;3.83;nan;99367.47;5012959;28;20041;-62
2022/12/01 09:21:12;;;;;;;66.30;32.17;;;;;;;3.71;nan;99352.03;5011827;28;20053;-62
2022/12/01 09:23:38;;;;;;;70.27;33.57;;;;;;;3.75;nan;99351.25;5012527;28;20036;-61
2022/12/01 09:26:04;;;;;;;61.43;29.97;;;;;;;3.99;nan;99364.41;5012996;28;20056;-65
2022/12/01 09:28:30;;;;;;;68.40;33.80;;;;;;;3.89;nan;99339.72;5011980;28;20042;-62
2022/12/01 09:30:55;;;;;;;65.03;33.90;;;;;;;3.91;nan;99361.72;5011638;28;20042;-62
2022/12/01 09:33:21;;;;;;;73.50;34.97;;;;;;;3.85;nan;99356.56;5005519;28;20056;-61
2022/12/01 09:35:47;;;;;;;55.10;29.33;;;;;;;4.02;nan;99367.03;5009291;28;20540;-62
2022/12/01 09:38:12;;;;;;;62.10;31.80;;;;;;;4.07;nan;99363.72;5006186;28;20057;-62
2022/12/01 09:40:41;;;;;;;59.17;29.27;;;;;;;4.08;nan;99362.91;5005949;28;20068;-62
2022/12/01 09:43:15;;;;;;;60.03;30.90;;;;;;;4.14;nan;99368.09;5009445;28;20041;-62
2022/12/01 09:45:46;;;;;;;59.73;31.27;;;;;;;3.96;nan;99359.28;5014078;28;20088;-63
2022/12/01 09:48:41;;;;;;;60.67;29.77;;;;;;;4.18;nan;99352.94;5014021;28;20129;-61
2022/12/01 09:51:18;;;;;;;67.97;32.43;;;;;;;4.04;nan;99356.06;5010373;28;20050;-61
2022/12/01 09:53:44;;;;;;;63.27;32.20;;;;;;;4.16;nan;99345.28;5013337;28;20132;-61
2022/12/01 09:56:31;;;;;;;62.70;32.30;;;;;;;4.08;nan;99324.84;5012495;28;20053;-63
2022/12/01 09:58:59;;;;;;;65.03;34.43;;;;;;;4.21;nan;99341.13;5012197;28;20042;-62
2022/12/01 10:01:42;;;;;;;64.93;34.73;;;;;;;4.10;nan;99340.09;5010813;28;20042;-63
2022/12/01 10:04:21;;;;;;;63.50;32.00;;;;;;;4.17;nan;99338.53;5011980;28;20053;-60
2022/12/01 10:06:53;;;;;;;63.63;32.13;;;;;;;3.93;nan;99344.00;5017126;28;20120;-61
2022/12/01 10:09:45;;;;;;;61.77;32.33;;;;;;;3.93;nan;99344.00;5006433;28;20100;-60
2022/12/01 10:12:16;;;;;;;61.73;30.60;;;;;;;3.97;nan;99328.03;5005951;28;20042;-65
2022/12/01 10:14:45;;;;;;;65.10;30.93;;;;;;;3.97;nan;99328.03;5011280;28;20038;-61
2022/12/01 10:17:35;;;;;;;65.13;32.67;;;;;;;3.97;nan;99328.03;5007217;28;20041;-61
2022/12/01 10:20:09;;;;;;;66.43;32.73;;;;;;;3.97;nan;99328.03;5008680;28;20076;-61
2022/12/01 10:22:57;;;;;;;63.20;30.40;;;;;;;3.97;nan;99328.03;5012533;28;20385;-62
2022/12/01 10:25:26;;;;;;;73.20;33.90;;;;;;;4.33;nan;99312.59;5010386;28;20052;-61
2022/12/01 10:28:15;;;;;;;67.83;32.80;;;;;;;4.38;nan;99311.81;5009376;28;20060;-60
2022/12/01 10:30:48;;;;;;;63.60;34.03;;;;;;;4.38;nan;99311.81;4998409;28;20060;-61
2022/12/01 10:33:24;;;;;;;66.57;33.80;;;;;;;4.59;nan;99306.22;5012061;28;20342;-61
2022/12/01 10:35:50;;;;;;;62.03;30.70;;;;;;;4.68;nan;99305.53;5009607;28;20038;-63
2022/12/01 10:38:26;;;;;;;69.70;33.30;;;;;;;4.69;nan;99287.78;5009212;28;20425;-65
2022/12/01 10:40:53;;;;;;;66.47;33.70;;;;;;;4.69;nan;99287.78;5011570;28;20744;-62
2022/12/01 10:43:28;;;;;;;69.03;35.07;;;;;;;4.69;nan;99287.78;5012063;28;20064;-61
2022/12/01 10:45:57;;;;;;;63.43;31.30;;;;;;;4.69;nan;99287.78;5009291;28;20166;-61
2022/12/01 10:48:23;;;;;;;66.63;34.37;;;;;;;4.69;nan;99287.78;5012149;28;20048;-61
2022/12/01 10:51:12;;;;;;;67.00;32.57;;;;;;;4.69;100.00;75161.81;5010915;28;20045;-62
2022/12/01 10:53:38;;;;;;;65.63;33.17;;;;;;;4.69;nan;99287.78;5010490;28;20148;-60
2022/12/01 10:56:17;;;;;;;63.57;31.87;;;;;;;4.69;nan;99287.78;5010366;28;20201;-64
2022/12/01 10:58:55;;;;;;;67.37;33.23;;;;;;;5.12;nan;99299.41;4994002;28;20065;-61
2022/12/01 11:01:29;;;;;;;62.30;32.03;;;;;;;5.12;nan;99299.41;5005116;28;20109;-64
2022/12/01 11:04:34;;;;;;;69.63;34.37;;;;;;;5.18;nan;99303.72;5013379;28;20043;-62
2022/12/01 11:07:00;;;;;;;66.57;34.90;;;;;;;5.18;nan;99303.72;5012328;28;20052;-63
2022/12/01 11:09:28;;;;;;;61.33;30.40;;;;;;;5.18;nan;99307.09;5010460;28;20092;-63
2022/12/01 11:11:59;;;;;;;63.70;31.57;;;;;;;5.08;nan;99282.41;5004475;28;20642;-62
2022/12/01 11:14:48;;;;;;;62.43;31.13;;;;;;;5.21;nan;99301.22;5010098;28;20041;-62
2022/12/01 11:17:41;;;;;;;62.33;32.37;;;;;;;5.15;nan;99306.19;5010439;28;20613;-63
2022/12/01 11:20:29;;;;;;;62.37;31.90;;;;;;;5.00;nan;99284.00;4982175;28;20053;-63
2022/12/01 11:23:17;;;;;;;74.40;34.90;;;;;;;4.97;nan;99299.19;5009894;28;20097;-62
2022/12/01 11:25:56;;;;;;;60.50;32.63;;;;;;;4.95;nan;99300.84;5008363;28;20400;-60
2022/12/01 11:28:22;;;;;;;63.90;35.93;;;;;;;4.76;nan;99297.19;5008564;28;20037;-62
2022/12/01 11:30:55;;;;;;;65.77;33.90;;;;;;;4.84;nan;99299.84;5011143;28;20092;-60
2022/12/01 11:33:20;;;;;;;67.53;32.90;;;;;;;4.77;nan;99296.38;4994573;28;20556;-62
2022/12/01 11:35:48;;;;;;;63.77;32.17;;;;;;;4.66;nan;99297.91;4993857;28;20046;-62
2022/12/01 11:38:31;;;;;;;67.60;33.57;;;;;;;4.71;nan;99291.19;5005362;28;20052;-64
2022/12/01 11:40:57;;;;;;;66.63;32.90;;;;;;;4.79;nan;99293.84;5002635;28;20116;-62
2022/12/01 11:43:25;;;;;;;61.43;33.07;;;;;;;4.71;nan;99275.13;5006372;28;20052;-63
2022/12/01 11:45:53;;;;;;;67.83;33.43;;;;;;;4.82;nan;99278.66;5009162;28;20033;-62
2022/12/01 11:48:28;;;;;;;70.77;34.30;;;;;;;4.81;nan;99276.94;5004060;28;20034;-61
2022/12/01 11:51:05;;;;;;;91.18;40.25;;;;;;;5.00;nan;99286.53;5005086;28;20607;-61
2022/12/01 11:53:35;;;;;;;100.67;52.57;;;;;;;4.87;nan;99293.13;5006186;28;20046;-61
2022/12/01 11:56:22;;;;;;;69.07;34.80;;;;;;;5.00;nan;99291.63;5001800;28;20049;-61
2022/12/01 11:59:03;;;;;;;62.73;31.97;;;;;;;4.90;nan;99290.63;5003067;28;20061;-63